Terminal Aerodrome Forecast
Issued by NWS Jackson, KY

Home | Current Version | Previous Version | Text Only | Print | Product List | Glossary On
Versions: 1 2 3 4 5 6 7 8 9 10 11 12 13 14 15 16 17 18 19 20
000
FTUS43 KJKL 170542
TAFLOZ
TAF
KLOZ 170542Z 1706/1806 VRB05KT P6SM OVC009
     FM170900 04004KT P6SM SCT010 SCT250
     FM171400 13004KT P6SM FEW250=

USA.gov is the U.S. government's official web portal to all federal, state and local government web resources and services.